Simolandia, Brazil
Current Conditions -  °F | °C
As of 4:00 PM on Sunday 23 Nov 2014 (Local Time) from SBBR Reporting Station
Broken Clouds Broken Clouds  
Wind Chill: 82°   Ceiling: 3000
Heat Index: 84°   Visibility: 6mi
Dew Point: 64°   Wind: 8mph
Humidity: 54%   Direction: 10°N
Pressure: 29.97"   Gusts: NA
Location:  14.47°S, 46.48°W
Report Text: SBBR 231800Z 01007KT 9999 BKN030 FEW040TCU BKN100 28/18 Q1015
Loading
Personal Weather Stations






























Interactive Weather Map New forecast layout! Learn more

10-Day Weather Forecast

Advertisements
Track Severe Weather on mobile